createdAt,value
2023-04-29T00:02:44.079Z,109.33
2023-04-29T00:07:46.406Z,190.50
2023-04-29T00:12:49.778Z,206.37
2023-04-29T00:17:52.193Z,229.07
2023-04-29T00:22:54.463Z,216.43
2023-04-29T00:27:56.664Z,212.27
2023-04-29T00:32:58.892Z,226.93
2023-04-29T00:38:01.126Z,151.33
2023-04-29T00:43:03.413Z,107.43
2023-04-29T00:48:06.137Z,102.70
2023-04-29T00:53:10.456Z,105.03
2023-04-29T00:58:12.886Z,104.67
2023-04-29T01:03:15.788Z,172.67
2023-04-29T01:08:48.647Z,216.00
2023-04-29T01:13:58.439Z,209.50
2023-04-29T01:19:13.067Z,156.57
2023-04-29T01:24:17.046Z,174.97
2023-04-29T01:29:59.151Z,216.07
2023-04-29T01:35:22.607Z,136.97
2023-04-29T01:40:38.071Z,212.60
2023-04-29T01:45:45.201Z,154.67
2023-04-29T01:50:49.324Z,233.30
2023-04-29T01:55:52.523Z,307.23
2023-04-29T02:00:57.633Z,215.27
2023-04-29T02:06:02.664Z,124.03
2023-04-29T02:11:04.942Z,103.27
2023-04-29T02:16:15.620Z,105.37
2023-04-29T02:21:27.460Z,233.63
2023-04-29T02:26:29.679Z,216.23
2023-04-29T02:31:32.136Z,134.97
2023-04-29T02:36:34.385Z,99.70
2023-04-29T02:41:36.526Z,100.23
2023-04-29T02:46:41.086Z,100.60
2023-04-29T02:51:43.655Z,109.87
2023-04-29T02:56:45.907Z,174.97
2023-04-29T03:01:48.275Z,201.73
2023-04-29T03:06:50.950Z,230.33
2023-04-29T03:11:53.471Z,204.33
2023-04-29T03:16:56.697Z,219.17
2023-04-29T03:21:59.042Z,221.40
2023-04-29T03:27:01.398Z,148.23
2023-04-29T03:32:03.909Z,95.07
2023-04-29T03:37:06.820Z,93.83
2023-04-29T03:42:12.626Z,87.90
2023-04-29T03:47:14.858Z,136.47
2023-04-29T03:52:17.439Z,191.43
2023-04-29T03:57:22.337Z,223.53
2023-04-29T04:02:25.517Z,225.50
2023-04-29T04:07:28.038Z,198.93
2023-04-29T04:12:50.078Z,186.43
2023-04-29T04:17:52.681Z,194.47
2023-04-29T04:22:55.285Z,193.70
2023-04-29T04:28:05.086Z,76.27
2023-04-29T04:33:26.331Z,187.37
2023-04-29T04:38:28.646Z,202.20
2023-04-29T04:43:31.217Z,126.93
2023-04-29T04:48:33.578Z,77.60
2023-04-29T04:53:35.857Z,53.37
2023-04-29T04:58:43.460Z,60.60
2023-04-29T05:03:46.042Z,156.37
2023-04-29T05:08:48.677Z,195.00
2023-04-29T05:13:51.644Z,178.43
2023-04-29T05:18:54.593Z,196.00
2023-04-29T05:23:59.938Z,194.53
2023-04-29T05:29:02.335Z,123.97
2023-04-29T05:34:10.027Z,91.63
2023-04-29T05:39:12.434Z,93.27
2023-04-29T05:44:14.933Z,141.60
2023-04-29T05:49:17.286Z,203.13
2023-04-29T05:54:19.608Z,230.07
2023-04-29T05:59:22.413Z,224.00
2023-04-29T06:04:28.805Z,239.47
2023-04-29T06:09:58.020Z,226.83
2023-04-29T06:15:01.570Z,161.43
2023-04-29T06:20:04.666Z,100.83
2023-04-29T06:25:07.420Z,102.83
2023-04-29T06:30:21.391Z,225.23
2023-04-29T06:35:23.493Z,223.23
2023-04-29T06:40:39.762Z,108.63
2023-04-29T06:46:05.693Z,103.77
2023-04-29T06:51:16.285Z,180.43
2023-04-29T06:56:18.751Z,214.70
2023-04-29T07:01:23.352Z,209.57
2023-04-29T07:06:27.120Z,216.73
2023-04-29T07:11:29.658Z,215.97
2023-04-29T07:16:31.877Z,157.50
2023-04-29T07:21:34.038Z,103.00
2023-04-29T07:26:36.412Z,103.50
2023-04-29T07:31:38.733Z,103.60
2023-04-29T07:36:41.280Z,165.53
2023-04-29T07:41:43.878Z,115.10
2023-04-29T07:46:46.988Z,176.00
2023-04-29T07:51:49.234Z,200.83
2023-04-29T07:56:51.481Z,224.47
2023-04-29T08:01:55.916Z,230.10
2023-04-29T08:06:58.493Z,227.17
2023-04-29T08:12:01.874Z,207.67
2023-04-29T08:17:05.219Z,108.60
2023-04-29T08:22:07.549Z,107.77
2023-04-29T08:27:09.647Z,102.90
2023-04-29T08:32:12.246Z,108.60
2023-04-29T08:37:17.005Z,137.77
2023-04-29T08:42:35.213Z,227.80
2023-04-29T08:47:38.053Z,104.23
2023-04-29T08:52:40.189Z,109.57
2023-04-29T08:57:45.494Z,110.97
2023-04-29T09:02:53.831Z,220.37
2023-04-29T09:07:59.873Z,247.77
2023-04-29T09:13:02.030Z,164.00
2023-04-29T09:18:04.505Z,118.37
2023-04-29T09:23:06.711Z,115.90
2023-04-29T09:28:18.116Z,113.97
2023-04-29T09:33:20.353Z,256.27
2023-04-29T09:38:22.557Z,242.53
2023-04-29T09:43:24.723Z,249.57
2023-04-29T09:48:33.919Z,254.07
2023-04-29T09:53:38.368Z,129.90
2023-04-29T09:58:40.671Z,129.10
2023-04-29T10:03:44.007Z,120.43
2023-04-29T10:08:48.968Z,189.97
2023-04-29T10:13:52.859Z,239.43
2023-04-29T10:18:56.965Z,232.27
2023-04-29T10:24:02.965Z,242.57
2023-04-29T10:29:08.601Z,143.37
2023-04-29T10:34:14.181Z,140.40
2023-04-29T10:39:44.139Z,220.00
2023-04-29T10:45:28.977Z,232.07
2023-04-29T10:50:35.717Z,242.17
2023-04-29T10:55:39.123Z,128.43
2023-04-29T11:00:41.580Z,132.87
2023-04-29T11:05:46.100Z,87.93
2023-04-29T11:10:48.654Z,207.50
2023-04-29T11:16:04.311Z,259.77
2023-04-29T11:21:06.599Z,149.90
2023-04-29T11:26:09.393Z,178.50
2023-04-29T11:31:12.041Z,147.57
2023-04-29T11:36:14.643Z,160.63
2023-04-29T11:41:20.510Z,251.23
2023-04-29T11:46:22.705Z,273.53
2023-04-29T11:51:24.938Z,257.67
2023-04-29T11:56:27.191Z,272.77
2023-04-29T12:01:29.547Z,243.17
2023-04-29T12:06:31.887Z,149.00
2023-04-29T12:11:34.428Z,139.10
2023-04-29T12:16:37.381Z,148.87
2023-04-29T12:21:50.351Z,157.80
2023-04-29T12:26:54.325Z,306.57
2023-04-29T12:31:56.981Z,316.43
2023-04-29T12:37:03.048Z,328.53
2023-04-29T12:42:05.548Z,173.37
2023-04-29T12:47:12.009Z,183.83
2023-04-29T12:52:14.542Z,184.07
2023-04-29T12:57:16.933Z,241.30
2023-04-29T13:02:19.413Z,256.93
2023-04-29T13:07:21.904Z,294.83
2023-04-29T13:12:24.017Z,280.87
2023-04-29T13:17:26.492Z,254.33
2023-04-29T13:22:29.488Z,300.37
2023-04-29T13:27:32.284Z,282.23
2023-04-29T13:32:43.955Z,187.17
2023-04-29T13:37:48.834Z,262.87
2023-04-29T13:42:59.619Z,336.67
2023-04-29T13:48:20.047Z,180.40
2023-04-29T13:53:51.028Z,300.90
2023-04-29T13:59:23.620Z,317.67
2023-04-29T14:04:13.396Z,156.00
2023-04-29T14:09:16.159Z,204.77
2023-04-29T14:14:18.432Z,261.63
2023-04-29T14:19:20.893Z,283.67
2023-04-29T14:24:23.058Z,308.07
2023-04-29T14:29:25.333Z,270.60
2023-04-29T14:34:27.473Z,225.90
2023-04-29T14:39:29.606Z,205.97
2023-04-29T14:44:31.707Z,233.97
2023-04-29T14:49:34.019Z,152.67
2023-04-29T14:54:36.390Z,106.00
2023-04-29T14:59:38.459Z,110.40
2023-04-29T15:04:45.750Z,122.80
2023-04-29T15:09:48.067Z,233.20
2023-04-29T15:14:51.053Z,270.17
2023-04-29T15:19:53.376Z,269.53
2023-04-29T15:24:55.613Z,274.50
2023-04-29T15:29:58.102Z,278.13
2023-04-29T15:35:02.023Z,278.23
2023-04-29T15:40:05.284Z,172.40
2023-04-29T15:45:08.986Z,143.43
2023-04-29T15:50:11.412Z,147.43
2023-04-29T15:55:13.678Z,150.27
2023-04-29T16:00:16.390Z,184.23
2023-04-29T16:05:18.442Z,245.10
2023-04-29T16:10:20.677Z,257.07
2023-04-29T16:15:22.957Z,274.93
2023-04-29T16:20:25.911Z,279.60
2023-04-29T16:25:28.371Z,279.83
2023-04-29T16:30:30.488Z,267.80
2023-04-29T16:35:32.811Z,211.50
2023-04-29T16:40:35.217Z,173.33
2023-04-29T16:45:37.345Z,147.07
2023-04-29T16:50:39.568Z,147.67
2023-04-29T16:55:46.007Z,141.67
2023-04-29T17:00:48.240Z,245.57
2023-04-29T17:05:50.446Z,259.57
2023-04-29T17:10:52.574Z,267.97
2023-04-29T17:15:54.753Z,253.00
2023-04-29T17:20:56.966Z,273.47
2023-04-29T17:25:59.126Z,268.20
2023-04-29T17:31:02.572Z,266.27
2023-04-29T17:36:05.955Z,152.80
2023-04-29T17:41:08.195Z,140.77
2023-04-29T17:46:10.492Z,134.10
2023-04-29T17:51:12.782Z,130.20
2023-04-29T17:56:14.925Z,139.50
2023-04-29T18:01:17.149Z,204.57
2023-04-29T18:06:19.396Z,249.20
2023-04-29T18:11:21.598Z,246.07
2023-04-29T18:16:23.932Z,241.77
2023-04-29T18:21:27.741Z,251.27
2023-04-29T18:26:29.937Z,236.17
2023-04-29T18:31:32.222Z,234.63
2023-04-29T18:36:34.522Z,152.03
2023-04-29T18:41:37.171Z,130.83
2023-04-29T18:46:39.587Z,128.33
2023-04-29T18:51:46.838Z,128.63
2023-04-29T18:56:50.273Z,223.97
2023-04-29T19:01:53.256Z,252.00
2023-04-29T19:06:55.578Z,257.23
2023-04-29T19:12:05.447Z,239.00
2023-04-29T19:17:07.736Z,121.37
2023-04-29T19:22:10.081Z,117.33
2023-04-29T19:27:12.656Z,118.13
2023-04-29T19:32:15.287Z,118.27
2023-04-29T19:37:17.750Z,196.27
2023-04-29T19:42:19.868Z,217.27
2023-04-29T19:47:24.173Z,234.73
2023-04-29T19:52:27.020Z,223.63
2023-04-29T19:57:29.116Z,228.27
2023-04-29T20:02:33.079Z,231.07
2023-04-29T20:07:35.529Z,134.33
2023-04-29T20:12:37.727Z,113.23
2023-04-29T20:17:40.182Z,119.13
2023-04-29T20:22:42.567Z,117.30
2023-04-29T20:27:44.784Z,118.20
2023-04-29T20:32:47.328Z,109.90
2023-04-29T20:37:49.748Z,198.17
2023-04-29T20:42:51.951Z,223.37
2023-04-29T20:47:54.693Z,209.07
2023-04-29T20:52:57.011Z,206.43
2023-04-29T20:57:59.137Z,216.70
2023-04-29T21:03:01.712Z,220.20
2023-04-29T21:08:03.996Z,145.57
2023-04-29T21:13:06.182Z,109.60
2023-04-29T21:18:08.391Z,106.43
2023-04-29T21:23:10.601Z,109.60
2023-04-29T21:28:14.317Z,109.33
2023-04-29T21:33:17.725Z,181.20
2023-04-29T21:38:19.903Z,225.43
2023-04-29T21:43:22.070Z,233.47
2023-04-29T21:48:25.341Z,220.80
2023-04-29T21:53:27.525Z,226.47
2023-04-29T21:58:29.678Z,237.67
2023-04-29T22:03:32.035Z,239.93
2023-04-29T22:08:34.236Z,151.23
2023-04-29T22:13:36.496Z,108.77
2023-04-29T22:18:38.907Z,109.77
2023-04-29T22:23:42.016Z,106.00
2023-04-29T22:28:44.379Z,113.10
2023-04-29T22:33:46.622Z,137.17
2023-04-29T22:38:49.104Z,200.97
2023-04-29T22:43:57.224Z,205.43
2023-04-29T22:48:59.709Z,210.17
2023-04-29T22:54:01.926Z,224.60
2023-04-29T22:59:04.140Z,144.70
2023-04-29T23:04:06.428Z,106.77
2023-04-29T23:09:08.799Z,105.17
2023-04-29T23:14:11.171Z,105.97
2023-04-29T23:19:13.407Z,105.43
2023-04-29T23:24:15.667Z,111.50
2023-04-29T23:29:18.079Z,168.07
2023-04-29T23:34:20.481Z,202.73
2023-04-29T23:39:22.789Z,215.77
2023-04-29T23:44:25.475Z,218.97
2023-04-29T23:49:28.728Z,212.20
2023-04-29T23:54:30.984Z,220.13
2023-04-29T23:59:33.175Z,203.67
